Hagarville, Arkansas
Current Conditions -  °F | °C
As of 8:53 PM on Sunday 21 Dec 2014 (Local Time) from KRUE Reporting Station
Overcast Overcast  
Wind Chill: 47°   Ceiling: 4100
Heat Index: 49°   Visibility: 10mi
Dew Point: 38°   Wind: 5mph
Humidity: 66%   Direction: 100°E
Pressure: 29.89"   Gusts: NA
Location:  35.52°N, 93.33°W
Report Text: KRUE 220253Z AUTO 10004KT 10SM OVC041 09/03 A2989 RMK AO2 SLP118 T00940033 58013
Loading
Personal Weather Stations






























Interactive Weather Map New forecast layout! Learn more

10-Day Weather Forecast

Advertisements
Track Severe Weather on mobile